sensor_id;sensor_type;location;lat;lon;timestamp;P1;durP1;ratioP1;P2;durP2;ratioP2
63095;SDS011;49184;55.596;37.770;2022-11-20T00:01:06;18.50;;;8.98;;
63095;SDS011;49184;55.596;37.770;2022-11-20T00:03:42;15.75;;;8.05;;
63095;SDS011;49184;55.596;37.770;2022-11-20T00:06:09;16.40;;;8.75;;
63095;SDS011;49184;55.596;37.770;2022-11-20T00:08:37;16.73;;;8.88;;
63095;SDS011;49184;55.596;37.770;2022-11-20T00:11:11;16.85;;;8.50;;
63095;SDS011;49184;55.596;37.770;2022-11-20T00:13:39;17.75;;;9.40;;
63095;SDS011;49184;55.596;37.770;2022-11-20T00:16:06;16.45;;;8.93;;
63095;SDS011;49184;55.596;37.770;2022-11-20T00:21:00;18.92;;;9.43;;
63095;SDS011;49184;55.596;37.770;2022-11-20T00:23:31;19.67;;;9.80;;
63095;SDS011;49184;55.596;37.770;2022-11-20T00:26:00;18.30;;;8.88;;
63095;SDS011;49184;55.596;37.770;2022-11-20T00:28:34;17.30;;;8.68;;
63095;SDS011;49184;55.596;37.770;2022-11-20T00:31:01;19.00;;;9.70;;
63095;SDS011;49184;55.596;37.770;2022-11-20T00:33:34;17.23;;;9.55;;
63095;SDS011;49184;55.596;37.770;2022-11-20T00:36:04;17.70;;;9.18;;
63095;SDS011;49184;55.596;37.770;2022-11-20T00:38:32;17.13;;;8.90;;
63095;SDS011;49184;55.596;37.770;2022-11-20T00:40:59;18.60;;;9.93;;
63095;SDS011;49184;55.596;37.770;2022-11-20T00:43:30;17.05;;;9.20;;
63095;SDS011;49184;55.596;37.770;2022-11-20T00:45:57;18.77;;;8.88;;
63095;SDS011;49184;55.596;37.770;2022-11-20T00:48:27;20.88;;;10.45;;
63095;SDS011;49184;55.596;37.770;2022-11-20T00:50:53;18.90;;;9.38;;
63095;SDS011;49184;55.596;37.770;2022-11-20T00:53:20;16.10;;;9.50;;
63095;SDS011;49184;55.596;37.770;2022-11-20T00:55:53;17.42;;;9.32;;
63095;SDS011;49184;55.596;37.770;2022-11-20T00:58:25;16.10;;;8.73;;
63095;SDS011;49184;55.596;37.770;2022-11-20T01:00:59;17.38;;;9.02;;
63095;SDS011;49184;55.596;37.770;2022-11-20T01:03:27;15.95;;;8.63;;
63095;SDS011;49184;55.596;37.770;2022-11-20T01:06:05;15.95;;;8.55;;
63095;SDS011;49184;55.596;37.770;2022-11-20T01:08:34;15.88;;;8.82;;
63095;SDS011;49184;55.596;37.770;2022-11-20T01:11:01;16.73;;;9.13;;
63095;SDS011;49184;55.596;37.770;2022-11-20T01:13:32;17.95;;;9.02;;
63095;SDS011;49184;55.596;37.770;2022-11-20T01:16:06;19.95;;;9.02;;
63095;SDS011;49184;55.596;37.770;2022-11-20T01:18:34;16.00;;;9.30;;
63095;SDS011;49184;55.596;37.770;2022-11-20T01:21:02;17.83;;;8.85;;
63095;SDS011;49184;55.596;37.770;2022-11-20T01:23:34;17.17;;;9.52;;
63095;SDS011;49184;55.596;37.770;2022-11-20T01:26:05;18.40;;;10.05;;
63095;SDS011;49184;55.596;37.770;2022-11-20T01:28:34;20.40;;;9.73;;
63095;SDS011;49184;55.596;37.770;2022-11-20T01:31:00;16.50;;;8.88;;
63095;SDS011;49184;55.596;37.770;2022-11-20T01:33:27;18.52;;;9.60;;
63095;SDS011;49184;55.596;37.770;2022-11-20T01:36:02;18.30;;;9.70;;
63095;SDS011;49184;55.596;37.770;2022-11-20T01:38:30;17.95;;;8.93;;
63095;SDS011;49184;55.596;37.770;2022-11-20T01:40:56;19.27;;;9.15;;
63095;SDS011;49184;55.596;37.770;2022-11-20T01:43:23;17.30;;;8.32;;
63095;SDS011;49184;55.596;37.770;2022-11-20T01:51:33;14.30;;;8.20;;
63095;SDS011;49184;55.596;37.770;2022-11-20T01:54:11;13.90;;;7.68;;
63095;SDS011;49184;55.596;37.770;2022-11-20T01:56:42;18.13;;;8.43;;
63095;SDS011;49184;55.596;37.770;2022-11-20T01:59:10;15.25;;;8.18;;
63095;SDS011;49184;55.596;37.770;2022-11-20T02:01:39;13.75;;;7.90;;
63095;SDS011;49184;55.596;37.770;2022-11-20T02:04:06;14.02;;;7.65;;
63095;SDS011;49184;55.596;37.770;2022-11-20T02:09:17;16.83;;;8.02;;
63095;SDS011;49184;55.596;37.770;2022-11-20T02:11:43;15.27;;;7.90;;
63095;SDS011;49184;55.596;37.770;2022-11-20T02:14:09;14.68;;;8.38;;
63095;SDS011;49184;55.596;37.770;2022-11-20T02:16:38;14.50;;;7.57;;
63095;SDS011;49184;55.596;37.770;2022-11-20T02:19:11;14.73;;;8.23;;
63095;SDS011;49184;55.596;37.770;2022-11-20T02:21:51;15.87;;;8.00;;
63095;SDS011;49184;55.596;37.770;2022-11-20T02:24:21;16.33;;;7.63;;
63095;SDS011;49184;55.596;37.770;2022-11-20T02:26:56;19.48;;;9.40;;
63095;SDS011;49184;55.596;37.770;2022-11-20T02:29:31;15.10;;;8.10;;
63095;SDS011;49184;55.596;37.770;2022-11-20T02:32:01;18.92;;;8.50;;
63095;SDS011;49184;55.596;37.770;2022-11-20T02:34:28;14.30;;;8.10;;
63095;SDS011;49184;55.596;37.770;2022-11-20T02:36:54;14.98;;;7.78;;
63095;SDS011;49184;55.596;37.770;2022-11-20T02:39:23;13.93;;;8.07;;
63095;SDS011;49184;55.596;37.770;2022-11-20T02:41:52;15.63;;;8.05;;
63095;SDS011;49184;55.596;37.770;2022-11-20T02:46:46;15.05;;;7.55;;
63095;SDS011;49184;55.596;37.770;2022-11-20T02:49:12;18.50;;;8.15;;
63095;SDS011;49184;55.596;37.770;2022-11-20T02:51:38;17.50;;;8.90;;
63095;SDS011;49184;55.596;37.770;2022-11-20T02:54:04;15.82;;;8.57;;
63095;SDS011;49184;55.596;37.770;2022-11-20T02:58:59;16.02;;;8.23;;
63095;SDS011;49184;55.596;37.770;2022-11-20T03:01:25;17.33;;;8.20;;
63095;SDS011;49184;55.596;37.770;2022-11-20T03:03:51;17.88;;;7.55;;
63095;SDS011;49184;55.596;37.770;2022-11-20T03:06:20;19.83;;;8.73;;
63095;SDS011;49184;55.596;37.770;2022-11-20T03:08:46;16.17;;;8.68;;
63095;SDS011;49184;55.596;37.770;2022-11-20T03:11:12;17.55;;;8.57;;
63095;SDS011;49184;55.596;37.770;2022-11-20T03:13:38;18.70;;;8.38;;
63095;SDS011;49184;55.596;37.770;2022-11-20T03:16:15;14.82;;;8.00;;
63095;SDS011;49184;55.596;37.770;2022-11-20T03:18:43;16.27;;;8.60;;
63095;SDS011;49184;55.596;37.770;2022-11-20T03:21:11;14.73;;;8.00;;
63095;SDS011;49184;55.596;37.770;2022-11-20T03:23:39;15.27;;;8.15;;
63095;SDS011;49184;55.596;37.770;2022-11-20T03:26:13;21.85;;;9.63;;
63095;SDS011;49184;55.596;37.770;2022-11-20T03:28:40;17.58;;;8.02;;
63095;SDS011;49184;55.596;37.770;2022-11-20T03:31:11;18.75;;;8.40;;
63095;SDS011;49184;55.596;37.770;2022-11-20T03:33:39;15.23;;;7.97;;
63095;SDS011;49184;55.596;37.770;2022-11-20T03:38:39;17.25;;;8.43;;
63095;SDS011;49184;55.596;37.770;2022-11-20T03:41:07;20.70;;;8.32;;
63095;SDS011;49184;55.596;37.770;2022-11-20T03:43:39;18.65;;;9.32;;
63095;SDS011;49184;55.596;37.770;2022-11-20T03:46:06;17.45;;;8.20;;
63095;SDS011;49184;55.596;37.770;2022-11-20T03:48:32;19.52;;;8.98;;
63095;SDS011;49184;55.596;37.770;2022-11-20T03:51:09;17.02;;;8.75;;
63095;SDS011;49184;55.596;37.770;2022-11-20T03:53:44;18.58;;;8.70;;
63095;SDS011;49184;55.596;37.770;2022-11-20T03:56:11;18.00;;;8.55;;
63095;SDS011;49184;55.596;37.770;2022-11-20T03:58:39;16.38;;;8.40;;
63095;SDS011;49184;55.596;37.770;2022-11-20T04:01:06;17.55;;;8.68;;
63095;SDS011;49184;55.596;37.770;2022-11-20T04:03:38;15.93;;;8.02;;
63095;SDS011;49184;55.596;37.770;2022-11-20T04:06:09;16.92;;;8.27;;
63095;SDS011;49184;55.596;37.770;2022-11-20T04:08:41;16.25;;;7.82;;
63095;SDS011;49184;55.596;37.770;2022-11-20T04:11:09;20.77;;;7.95;;
63095;SDS011;49184;55.596;37.770;2022-11-20T04:16:01;16.20;;;7.73;;
63095;SDS011;49184;55.596;37.770;2022-11-20T04:18:28;18.80;;;8.77;;
63095;SDS011;49184;55.596;37.770;2022-11-20T04:20:55;17.65;;;8.25;;
63095;SDS011;49184;55.596;37.770;2022-11-20T04:23:23;14.77;;;7.88;;
63095;SDS011;49184;55.596;37.770;2022-11-20T04:25:49;17.85;;;8.85;;
63095;SDS011;49184;55.596;37.770;2022-11-20T04:28:15;13.20;;;8.02;;
63095;SDS011;49184;55.596;37.770;2022-11-20T04:30:42;19.67;;;9.57;;
63095;SDS011;49184;55.596;37.770;2022-11-20T04:33:08;18.17;;;8.70;;
63095;SDS011;49184;55.596;37.770;2022-11-20T04:35:34;20.10;;;9.27;;
63095;SDS011;49184;55.596;37.770;2022-11-20T04:38:01;17.52;;;8.57;;
63095;SDS011;49184;55.596;37.770;2022-11-20T04:40:28;18.17;;;9.55;;
63095;SDS011;49184;55.596;37.770;2022-11-20T04:42:55;20.75;;;9.32;;
63095;SDS011;49184;55.596;37.770;2022-11-20T04:45:22;22.70;;;9.80;;
63095;SDS011;49184;55.596;37.770;2022-11-20T04:47:49;18.92;;;9.45;;
63095;SDS011;49184;55.596;37.770;2022-11-20T04:50:16;17.35;;;9.02;;
63095;SDS011;49184;55.596;37.770;2022-11-20T04:52:53;20.13;;;9.30;;
63095;SDS011;49184;55.596;37.770;2022-11-20T04:55:19;16.13;;;8.05;;
63095;SDS011;49184;55.596;37.770;2022-11-20T04:57:49;17.92;;;8.95;;
63095;SDS011;49184;55.596;37.770;2022-11-20T05:00:16;20.92;;;9.80;;
63095;SDS011;49184;55.596;37.770;2022-11-20T05:02:42;21.48;;;10.02;;
63095;SDS011;49184;55.596;37.770;2022-11-20T05:05:08;19.40;;;9.57;;
63095;SDS011;49184;55.596;37.770;2022-11-20T05:07:34;20.50;;;9.63;;
63095;SDS011;49184;55.596;37.770;2022-11-20T05:10:00;16.45;;;8.88;;
63095;SDS011;49184;55.596;37.770;2022-11-20T05:12:27;19.07;;;9.30;;
63095;SDS011;49184;55.596;37.770;2022-11-20T05:14:54;16.98;;;8.93;;
63095;SDS011;49184;55.596;37.770;2022-11-20T05:17:20;20.33;;;9.23;;
63095;SDS011;49184;55.596;37.770;2022-11-20T05:19:46;19.77;;;8.27;;
63095;SDS011;49184;55.596;37.770;2022-11-20T05:22:13;17.75;;;8.82;;
63095;SDS011;49184;55.596;37.770;2022-11-20T05:24:40;20.15;;;9.70;;
63095;SDS011;49184;55.596;37.770;2022-11-20T05:29:34;22.23;;;10.02;;
63095;SDS011;49184;55.596;37.770;2022-11-20T05:32:01;19.55;;;9.23;;
63095;SDS011;49184;55.596;37.770;2022-11-20T05:34:27;16.37;;;9.27;;
63095;SDS011;49184;55.596;37.770;2022-11-20T05:36:53;17.88;;;8.95;;
63095;SDS011;49184;55.596;37.770;2022-11-20T05:39:19;16.30;;;8.98;;
63095;SDS011;49184;55.596;37.770;2022-11-20T05:41:45;17.17;;;8.82;;
63095;SDS011;49184;55.596;37.770;2022-11-20T05:44:31;17.48;;;9.13;;
63095;SDS011;49184;55.596;37.770;2022-11-20T05:46:58;19.83;;;8.93;;
63095;SDS011;49184;55.596;37.770;2022-11-20T05:49:25;17.40;;;8.57;;
63095;SDS011;49184;55.596;37.770;2022-11-20T05:51:51;19.65;;;9.18;;
63095;SDS011;49184;55.596;37.770;2022-11-20T05:54:17;16.92;;;8.68;;
63095;SDS011;49184;55.596;37.770;2022-11-20T05:59:12;16.67;;;8.40;;
63095;SDS011;49184;55.596;37.770;2022-11-20T06:01:38;17.05;;;8.52;;
63095;SDS011;49184;55.596;37.770;2022-11-20T06:04:04;19.73;;;9.07;;
63095;SDS011;49184;55.596;37.770;2022-11-20T06:06:34;23.08;;;10.27;;
63095;SDS011;49184;55.596;37.770;2022-11-20T06:09:00;26.02;;;11.48;;
63095;SDS011;49184;55.596;37.770;2022-11-20T06:11:26;21.17;;;10.10;;
63095;SDS011;49184;55.596;37.770;2022-11-20T06:13:52;22.17;;;10.50;;
63095;SDS011;49184;55.596;37.770;2022-11-20T06:16:19;20.45;;;9.63;;
63095;SDS011;49184;55.596;37.770;2022-11-20T06:18:46;18.25;;;9.15;;
63095;SDS011;49184;55.596;37.770;2022-11-20T06:21:17;19.75;;;9.25;;
63095;SDS011;49184;55.596;37.770;2022-11-20T06:23:46;19.40;;;9.35;;
63095;SDS011;49184;55.596;37.770;2022-11-20T06:26:14;20.83;;;9.93;;
63095;SDS011;49184;55.596;37.770;2022-11-20T06:28:44;16.17;;;8.65;;
63095;SDS011;49184;55.596;37.770;2022-11-20T06:31:12;21.73;;;9.98;;
63095;SDS011;49184;55.596;37.770;2022-11-20T06:33:40;17.75;;;8.52;;
63095;SDS011;49184;55.596;37.770;2022-11-20T06:36:09;18.30;;;8.98;;
63095;SDS011;49184;55.596;37.770;2022-11-20T06:38:37;16.45;;;8.65;;
63095;SDS011;49184;55.596;37.770;2022-11-20T06:41:09;15.10;;;8.30;;
63095;SDS011;49184;55.596;37.770;2022-11-20T06:43:38;20.98;;;8.60;;
63095;SDS011;49184;55.596;37.770;2022-11-20T06:46:04;23.40;;;9.97;;
63095;SDS011;49184;55.596;37.770;2022-11-20T06:48:31;18.48;;;9.60;;
63095;SDS011;49184;55.596;37.770;2022-11-20T06:50:58;20.93;;;9.40;;
63095;SDS011;49184;55.596;37.770;2022-11-20T06:53:25;20.70;;;9.55;;
63095;SDS011;49184;55.596;37.770;2022-11-20T06:55:51;17.55;;;9.30;;
63095;SDS011;49184;55.596;37.770;2022-11-20T06:58:18;17.75;;;9.93;;
63095;SDS011;49184;55.596;37.770;2022-11-20T07:00:45;17.55;;;9.52;;
63095;SDS011;49184;55.596;37.770;2022-11-20T07:03:12;19.02;;;9.25;;
63095;SDS011;49184;55.596;37.770;2022-11-20T07:05:39;20.77;;;8.95;;
63095;SDS011;49184;55.596;37.770;2022-11-20T07:08:05;18.67;;;9.18;;
63095;SDS011;49184;55.596;37.770;2022-11-20T07:10:32;21.42;;;10.23;;
63095;SDS011;49184;55.596;37.770;2022-11-20T07:12:58;18.77;;;9.40;;
63095;SDS011;49184;55.596;37.770;2022-11-20T07:15:25;19.48;;;9.93;;
63095;SDS011;49184;55.596;37.770;2022-11-20T07:17:51;17.77;;;9.57;;
63095;SDS011;49184;55.596;37.770;2022-11-20T07:20:18;21.27;;;9.70;;
63095;SDS011;49184;55.596;37.770;2022-11-20T07:22:52;18.80;;;9.38;;
63095;SDS011;49184;55.596;37.770;2022-11-20T07:25:22;23.55;;;11.30;;
63095;SDS011;49184;55.596;37.770;2022-11-20T07:27:48;25.08;;;10.32;;
63095;SDS011;49184;55.596;37.770;2022-11-20T07:30:15;19.67;;;9.15;;
63095;SDS011;49184;55.596;37.770;2022-11-20T07:32:42;20.27;;;10.68;;
63095;SDS011;49184;55.596;37.770;2022-11-20T07:35:08;18.33;;;9.85;;
63095;SDS011;49184;55.596;37.770;2022-11-20T07:37:34;27.90;;;13.15;;
63095;SDS011;49184;55.596;37.770;2022-11-20T07:40:01;28.57;;;13.27;;
63095;SDS011;49184;55.596;37.770;2022-11-20T07:42:29;30.48;;;14.60;;
63095;SDS011;49184;55.596;37.770;2022-11-20T07:44:55;30.17;;;13.48;;
63095;SDS011;49184;55.596;37.770;2022-11-20T07:47:21;24.95;;;12.88;;
63095;SDS011;49184;55.596;37.770;2022-11-20T07:49:47;36.42;;;14.95;;
63095;SDS011;49184;55.596;37.770;2022-11-20T07:52:14;38.22;;;13.75;;
63095;SDS011;49184;55.596;37.770;2022-11-20T07:54:40;29.42;;;14.25;;
63095;SDS011;49184;55.596;37.770;2022-11-20T07:57:06;22.00;;;10.95;;
63095;SDS011;49184;55.596;37.770;2022-11-20T07:59:32;25.75;;;12.43;;
63095;SDS011;49184;55.596;37.770;2022-11-20T08:01:59;23.23;;;11.40;;
63095;SDS011;49184;55.596;37.770;2022-11-20T08:04:27;24.88;;;12.48;;
63095;SDS011;49184;55.596;37.770;2022-11-20T08:06:53;26.45;;;11.82;;
63095;SDS011;49184;55.596;37.770;2022-11-20T08:09:20;43.22;;;12.88;;
63095;SDS011;49184;55.596;37.770;2022-11-20T08:11:46;40.85;;;12.98;;
63095;SDS011;49184;55.596;37.770;2022-11-20T08:14:33;23.87;;;12.70;;
63095;SDS011;49184;55.596;37.770;2022-11-20T08:16:59;25.30;;;12.85;;
63095;SDS011;49184;55.596;37.770;2022-11-20T08:19:25;31.20;;;13.27;;
63095;SDS011;49184;55.596;37.770;2022-11-20T08:21:51;28.75;;;14.05;;
63095;SDS011;49184;55.596;37.770;2022-11-20T08:24:17;31.48;;;14.80;;
63095;SDS011;49184;55.596;37.770;2022-11-20T08:26:45;30.52;;;12.90;;
63095;SDS011;49184;55.596;37.770;2022-11-20T08:29:12;27.48;;;12.75;;
63095;SDS011;49184;55.596;37.770;2022-11-20T08:31:38;33.05;;;14.60;;
63095;SDS011;49184;55.596;37.770;2022-11-20T08:34:05;23.10;;;11.23;;
63095;SDS011;49184;55.596;37.770;2022-11-20T08:36:32;24.60;;;12.23;;
63095;SDS011;49184;55.596;37.770;2022-11-20T08:39:00;25.25;;;11.77;;
63095;SDS011;49184;55.596;37.770;2022-11-20T08:41:28;25.75;;;11.98;;
63095;SDS011;49184;55.596;37.770;2022-11-20T08:44:02;28.13;;;12.70;;
63095;SDS011;49184;55.596;37.770;2022-11-20T08:46:37;25.85;;;12.93;;
63095;SDS011;49184;55.596;37.770;2022-11-20T08:49:07;25.55;;;12.55;;
63095;SDS011;49184;55.596;37.770;2022-11-20T08:51:35;25.77;;;11.88;;
63095;SDS011;49184;55.596;37.770;2022-11-20T08:54:01;24.23;;;11.68;;
63095;SDS011;49184;55.596;37.770;2022-11-20T08:56:28;21.77;;;12.13;;
63095;SDS011;49184;55.596;37.770;2022-11-20T08:58:54;25.35;;;12.18;;
63095;SDS011;49184;55.596;37.770;2022-11-20T09:01:21;25.15;;;12.32;;
63095;SDS011;49184;55.596;37.770;2022-11-20T09:03:49;21.52;;;12.40;;
63095;SDS011;49184;55.596;37.770;2022-11-20T09:06:19;24.10;;;12.70;;
63095;SDS011;49184;55.596;37.770;2022-11-20T09:18:57;27.98;;;15.25;;
63095;SDS011;49184;55.596;37.770;2022-11-20T09:21:23;29.23;;;13.95;;
63095;SDS011;49184;55.596;37.770;2022-11-20T09:23:50;28.80;;;14.13;;
63095;SDS011;49184;55.596;37.770;2022-11-20T09:26:16;36.40;;;16.02;;
63095;SDS011;49184;55.596;37.770;2022-11-20T09:28:42;32.55;;;14.43;;
63095;SDS011;49184;55.596;37.770;2022-11-20T09:31:17;32.80;;;14.32;;
63095;SDS011;49184;55.596;37.770;2022-11-20T09:33:48;38.42;;;16.95;;
63095;SDS011;49184;55.596;37.770;2022-11-20T09:36:14;38.90;;;17.65;;
63095;SDS011;49184;55.596;37.770;2022-11-20T09:38:42;46.75;;;19.08;;
63095;SDS011;49184;55.596;37.770;2022-11-20T09:44:23;39.75;;;17.92;;
63095;SDS011;49184;55.596;37.770;2022-11-20T09:47:16;39.95;;;17.35;;
63095;SDS011;49184;55.596;37.770;2022-11-20T09:50:14;43.00;;;17.92;;
63095;SDS011;49184;55.596;37.770;2022-11-20T09:55:40;47.30;;;19.55;;
63095;SDS011;49184;55.596;37.770;2022-11-20T10:02:37;46.55;;;20.50;;
63095;SDS011;49184;55.596;37.770;2022-11-20T10:07:51;43.95;;;21.02;;
63095;SDS011;49184;55.596;37.770;2022-11-20T10:10:41;50.25;;;21.85;;
63095;SDS011;49184;55.596;37.770;2022-11-20T10:13:23;42.78;;;19.30;;
63095;SDS011;49184;55.596;37.770;2022-11-20T10:30:15;50.60;;;20.50;;
63095;SDS011;49184;55.596;37.770;2022-11-20T10:32:45;49.03;;;20.17;;
63095;SDS011;49184;55.596;37.770;2022-11-20T10:37:58;49.92;;;21.02;;
63095;SDS011;49184;55.596;37.770;2022-11-20T10:40:28;55.58;;;21.10;;
63095;SDS011;49184;55.596;37.770;2022-11-20T10:43:21;55.35;;;20.58;;
63095;SDS011;49184;55.596;37.770;2022-11-20T10:48:48;50.38;;;20.00;;
63095;SDS011;49184;55.596;37.770;2022-11-20T10:56:55;47.53;;;18.83;;
63095;SDS011;49184;55.596;37.770;2022-11-20T10:59:40;64.53;;;21.48;;
63095;SDS011;49184;55.596;37.770;2022-11-20T11:12:20;46.35;;;18.45;;
63095;SDS011;49184;55.596;37.770;2022-11-20T11:14:50;37.65;;;16.92;;
63095;SDS011;49184;55.596;37.770;2022-11-20T11:17:25;38.78;;;16.63;;
63095;SDS011;49184;55.596;37.770;2022-11-20T11:26:04;43.92;;;15.95;;
63095;SDS011;49184;55.596;37.770;2022-11-20T11:28:43;33.63;;;15.00;;
63095;SDS011;49184;55.596;37.770;2022-11-20T11:35:02;35.33;;;14.63;;
63095;SDS011;49184;55.596;37.770;2022-11-20T11:37:40;35.42;;;15.00;;
63095;SDS011;49184;55.596;37.770;2022-11-20T11:40:08;29.77;;;13.80;;
63095;SDS011;49184;55.596;37.770;2022-11-20T11:42:41;32.40;;;14.95;;
63095;SDS011;49184;55.596;37.770;2022-11-20T11:49:22;22.95;;;12.27;;
63095;SDS011;49184;55.596;37.770;2022-11-20T11:51:59;26.70;;;13.10;;
63095;SDS011;49184;55.596;37.770;2022-11-20T11:54:52;27.08;;;12.02;;
63095;SDS011;49184;55.596;37.770;2022-11-20T11:57:23;32.38;;;14.35;;
63095;SDS011;49184;55.596;37.770;2022-11-20T12:03:35;34.50;;;12.60;;
63095;SDS011;49184;55.596;37.770;2022-11-20T12:06:14;25.80;;;13.05;;
63095;SDS011;49184;55.596;37.770;2022-11-20T12:11:33;22.55;;;12.35;;
63095;SDS011;49184;55.596;37.770;2022-11-20T12:19:49;25.93;;;13.00;;
63095;SDS011;49184;55.596;37.770;2022-11-20T12:22:41;25.40;;;11.77;;
63095;SDS011;49184;55.596;37.770;2022-11-20T12:33:27;21.13;;;12.00;;
63095;SDS011;49184;55.596;37.770;2022-11-20T12:49:04;28.38;;;13.60;;
63095;SDS011;49184;55.596;37.770;2022-11-20T12:55:02;29.60;;;13.07;;
63095;SDS011;49184;55.596;37.770;2022-11-20T13:01:17;29.30;;;12.73;;
63095;SDS011;49184;55.596;37.770;2022-11-20T13:07:13;28.40;;;13.88;;
63095;SDS011;49184;55.596;37.770;2022-11-20T13:10:12;24.08;;;12.45;;
63095;SDS011;49184;55.596;37.770;2022-11-20T13:20:06;70.10;;;18.15;;
63095;SDS011;49184;55.596;37.770;2022-11-20T13:22:44;159.68;;;32.42;;
63095;SDS011;49184;55.596;37.770;2022-11-20T13:25:34;27.45;;;14.20;;
63095;SDS011;49184;55.596;37.770;2022-11-20T13:28:26;27.45;;;13.18;;
63095;SDS011;49184;55.596;37.770;2022-11-20T13:30:57;28.48;;;14.40;;
63095;SDS011;49184;55.596;37.770;2022-11-20T13:34:03;27.08;;;13.85;;
63095;SDS011;49184;55.596;37.770;2022-11-20T13:36:49;73.82;;;18.33;;
63095;SDS011;49184;55.596;37.770;2022-11-20T13:45:54;34.42;;;13.40;;
63095;SDS011;49184;55.596;37.770;2022-11-20T13:48:24;44.33;;;14.00;;
63095;SDS011;49184;55.596;37.770;2022-11-20T13:51:03;30.45;;;13.27;;
63095;SDS011;49184;55.596;37.770;2022-11-20T13:53:57;31.02;;;13.93;;
63095;SDS011;49184;55.596;37.770;2022-11-20T13:56:47;28.50;;;13.60;;
63095;SDS011;49184;55.596;37.770;2022-11-20T14:02:13;42.03;;;14.07;;
63095;SDS011;49184;55.596;37.770;2022-11-20T14:04:54;30.67;;;14.07;;
63095;SDS011;49184;55.596;37.770;2022-11-20T14:07:25;28.02;;;14.65;;
63095;SDS011;49184;55.596;37.770;2022-11-20T14:10:40;34.65;;;15.55;;
63095;SDS011;49184;55.596;37.770;2022-11-20T14:13:39;29.90;;;13.63;;
63095;SDS011;49184;55.596;37.770;2022-11-20T14:16:28;29.30;;;13.43;;
63095;SDS011;49184;55.596;37.770;2022-11-20T14:19:28;26.65;;;12.70;;
63095;SDS011;49184;55.596;37.770;2022-11-20T14:29:03;32.95;;;13.77;;
63095;SDS011;49184;55.596;37.770;2022-11-20T14:31:33;32.35;;;14.32;;
63095;SDS011;49184;55.596;37.770;2022-11-20T14:34:25;28.20;;;13.65;;
63095;SDS011;49184;55.596;37.770;2022-11-20T14:37:10;23.98;;;13.00;;
63095;SDS011;49184;55.596;37.770;2022-11-20T14:39:49;31.23;;;12.18;;
63095;SDS011;49184;55.596;37.770;2022-11-20T14:42:30;25.08;;;12.60;;
63095;SDS011;49184;55.596;37.770;2022-11-20T14:45:07;25.95;;;12.82;;
63095;SDS011;49184;55.596;37.770;2022-11-20T14:47:57;25.10;;;12.60;;
63095;SDS011;49184;55.596;37.770;2022-11-20T14:50:47;40.00;;;12.45;;
63095;SDS011;49184;55.596;37.770;2022-11-20T14:53:46;27.27;;;13.68;;
63095;SDS011;49184;55.596;37.770;2022-11-20T14:56:25;28.02;;;13.32;;
63095;SDS011;49184;55.596;37.770;2022-11-20T14:59:00;48.15;;;20.52;;
63095;SDS011;49184;55.596;37.770;2022-11-20T15:01:32;59.13;;;20.08;;
63095;SDS011;49184;55.596;37.770;2022-11-20T15:04:04;40.88;;;17.40;;
63095;SDS011;49184;55.596;37.770;2022-11-20T15:07:02;26.58;;;12.73;;
63095;SDS011;49184;55.596;37.770;2022-11-20T15:09:29;41.97;;;16.20;;
63095;SDS011;49184;55.596;37.770;2022-11-20T15:12:05;31.90;;;14.05;;
63095;SDS011;49184;55.596;37.770;2022-11-20T15:15:32;31.48;;;12.98;;
63095;SDS011;49184;55.596;37.770;2022-11-20T15:22:02;23.58;;;12.00;;
63095;SDS011;49184;55.596;37.770;2022-11-20T15:27:34;55.75;;;25.70;;
63095;SDS011;49184;55.596;37.770;2022-11-20T15:30:35;73.05;;;25.98;;
63095;SDS011;49184;55.596;37.770;2022-11-20T15:33:11;63.60;;;27.08;;
63095;SDS011;49184;55.596;37.770;2022-11-20T15:35:55;70.63;;;28.13;;
63095;SDS011;49184;55.596;37.770;2022-11-20T15:38:31;79.70;;;29.17;;
63095;SDS011;49184;55.596;37.770;2022-11-20T15:41:33;75.13;;;29.45;;
63095;SDS011;49184;55.596;37.770;2022-11-20T15:44:30;75.95;;;28.63;;
63095;SDS011;49184;55.596;37.770;2022-11-20T15:46:56;79.80;;;28.27;;
63095;SDS011;49184;55.596;37.770;2022-11-20T15:49:28;68.68;;;28.10;;
63095;SDS011;49184;55.596;37.770;2022-11-20T15:56:06;71.55;;;27.00;;
63095;SDS011;49184;55.596;37.770;2022-11-20T15:58:39;73.97;;;27.73;;
63095;SDS011;49184;55.596;37.770;2022-11-20T16:01:13;70.50;;;26.30;;
63095;SDS011;49184;55.596;37.770;2022-11-20T16:03:44;77.72;;;28.58;;
63095;SDS011;49184;55.596;37.770;2022-11-20T16:06:22;64.53;;;26.67;;
63095;SDS011;49184;55.596;37.770;2022-11-20T16:08:53;70.37;;;27.53;;
63095;SDS011;49184;55.596;37.770;2022-11-20T16:11:19;68.50;;;25.38;;
63095;SDS011;49184;55.596;37.770;2022-11-20T16:13:46;62.72;;;26.60;;
63095;SDS011;49184;55.596;37.770;2022-11-20T16:16:32;73.47;;;26.17;;
63095;SDS011;49184;55.596;37.770;2022-11-20T16:19:01;75.22;;;25.92;;
63095;SDS011;49184;55.596;37.770;2022-11-20T16:21:27;71.55;;;26.50;;
63095;SDS011;49184;55.596;37.770;2022-11-20T16:24:05;79.72;;;28.08;;
63095;SDS011;49184;55.596;37.770;2022-11-20T16:26:37;66.82;;;25.65;;
63095;SDS011;49184;55.596;37.770;2022-11-20T16:29:06;68.90;;;26.88;;
63095;SDS011;49184;55.596;37.770;2022-11-20T16:31:38;71.03;;;26.52;;
63095;SDS011;49184;55.596;37.770;2022-11-20T16:34:06;72.20;;;28.23;;
63095;SDS011;49184;55.596;37.770;2022-11-20T16:36:59;71.38;;;27.08;;
63095;SDS011;49184;55.596;37.770;2022-11-20T16:39:26;82.07;;;29.40;;
63095;SDS011;49184;55.596;37.770;2022-11-20T16:43:11;90.78;;;29.83;;
63095;SDS011;49184;55.596;37.770;2022-11-20T16:48:32;65.22;;;28.13;;
63095;SDS011;49184;55.596;37.770;2022-11-20T16:54:17;71.38;;;27.42;;
63095;SDS011;49184;55.596;37.770;2022-11-20T16:56:52;67.22;;;27.77;;
63095;SDS011;49184;55.596;37.770;2022-11-20T16:59:41;66.45;;;27.65;;
63095;SDS011;49184;55.596;37.770;2022-11-20T17:02:29;79.03;;;28.30;;
63095;SDS011;49184;55.596;37.770;2022-11-20T17:04:56;68.57;;;29.30;;
63095;SDS011;49184;55.596;37.770;2022-11-20T17:17:30;62.72;;;24.85;;
63095;SDS011;49184;55.596;37.770;2022-11-20T17:20:13;74.03;;;26.05;;
63095;SDS011;49184;55.596;37.770;2022-11-20T17:22:40;63.50;;;26.23;;
63095;SDS011;49184;55.596;37.770;2022-11-20T17:25:10;77.15;;;28.17;;
63095;SDS011;49184;55.596;37.770;2022-11-20T17:27:58;70.88;;;25.75;;
63095;SDS011;49184;55.596;37.770;2022-11-20T17:30:26;74.75;;;26.70;;
63095;SDS011;49184;55.596;37.770;2022-11-20T17:32:52;82.50;;;28.42;;
63095;SDS011;49184;55.596;37.770;2022-11-20T17:35:24;72.13;;;28.38;;
63095;SDS011;49184;55.596;37.770;2022-11-20T17:37:52;72.75;;;28.05;;
63095;SDS011;49184;55.596;37.770;2022-11-20T17:40:38;80.68;;;28.05;;
63095;SDS011;49184;55.596;37.770;2022-11-20T17:43:13;71.95;;;26.55;;
63095;SDS011;49184;55.596;37.770;2022-11-20T17:45:40;73.03;;;26.87;;
63095;SDS011;49184;55.596;37.770;2022-11-20T17:48:15;77.65;;;27.73;;
63095;SDS011;49184;55.596;37.770;2022-11-20T17:50:42;79.55;;;27.02;;
63095;SDS011;49184;55.596;37.770;2022-11-20T17:53:13;74.72;;;26.17;;
63095;SDS011;49184;55.596;37.770;2022-11-20T17:55:53;74.30;;;26.90;;